createdAt,value
2023-05-16T00:17:47.396Z,13.40
2023-05-16T00:23:17.472Z,13.42
2023-05-16T00:28:31.622Z,13.44
2023-05-16T00:35:07.334Z,13.42
2023-05-16T00:40:11.888Z,13.36
2023-05-16T01:01:22.550Z,13.06
2023-05-16T01:06:26.750Z,12.97
2023-05-16T01:11:39.830Z,12.94
2023-05-16T01:18:00.428Z,12.94
2023-05-16T01:24:13.799Z,12.94
2023-05-16T01:29:17.627Z,12.89
2023-05-16T01:35:57.778Z,12.85
2023-05-16T01:42:17.509Z,12.85
2023-05-16T01:48:12.298Z,12.81
2023-05-16T01:54:06.906Z,12.77
2023-05-16T02:14:06.700Z,12.72
2023-05-16T02:26:47.236Z,12.70
2023-05-16T02:31:50.851Z,12.68
2023-05-16T02:45:31.202Z,12.69
2023-05-16T03:08:22.392Z,12.70
2023-05-16T03:22:42.741Z,12.68
2023-05-16T03:27:45.238Z,12.69
2023-05-16T03:33:13.551Z,12.71
2023-05-16T03:39:08.273Z,12.75
2023-05-16T03:52:01.794Z,12.82
2023-05-16T04:12:27.130Z,12.64
2023-05-16T04:24:44.424Z,12.50
2023-05-16T04:30:12.116Z,12.39
2023-05-16T04:43:38.433Z,12.29
2023-05-16T04:48:45.120Z,12.32
2023-05-16T04:53:49.257Z,12.31
2023-05-16T04:59:48.702Z,12.33
2023-05-16T05:04:53.593Z,12.33
2023-05-16T05:09:57.355Z,12.31
2023-05-16T05:15:32.837Z,12.24
2023-05-16T05:20:36.469Z,12.19
2023-05-16T05:25:41.369Z,12.16
2023-05-16T05:38:16.657Z,12.13
2023-05-16T05:43:20.432Z,12.16
2023-05-16T05:48:48.462Z,12.16
2023-05-16T05:53:53.683Z,12.22
2023-05-16T05:58:58.135Z,12.30
2023-05-16T06:04:27.186Z,12.32
2023-05-16T06:16:39.657Z,12.48
2023-05-16T06:21:44.393Z,12.60
2023-05-16T06:26:50.314Z,12.70
2023-05-16T06:31:54.161Z,12.66
2023-05-16T06:36:58.161Z,12.63
2023-05-16T06:42:03.009Z,12.59
2023-05-16T06:47:07.182Z,12.63
2023-05-16T06:52:12.261Z,12.61
2023-05-16T06:57:16.014Z,12.60
2023-05-16T07:02:19.781Z,12.69
2023-05-16T07:07:23.550Z,12.85
2023-05-16T07:12:27.463Z,12.97
2023-05-16T07:17:31.460Z,13.05
2023-05-16T07:22:35.324Z,13.03
2023-05-16T07:27:45.249Z,13.10
2023-05-16T07:32:50.343Z,13.23
2023-05-16T07:37:54.198Z,13.47
2023-05-16T07:43:00.068Z,13.60
2023-05-16T07:48:04.397Z,13.66
2023-05-16T07:53:09.949Z,13.71
2023-05-16T07:58:14.619Z,13.69
2023-05-16T08:03:18.652Z,13.70
2023-05-16T08:08:23.375Z,13.65
2023-05-16T08:13:27.423Z,13.68
2023-05-16T08:18:30.997Z,13.70
2023-05-16T08:23:34.931Z,13.74
2023-05-16T08:28:40.421Z,13.73
2023-05-16T08:33:44.553Z,13.84
2023-05-16T08:39:08.023Z,14.09
2023-05-16T08:44:13.440Z,14.29
2023-05-16T08:49:19.385Z,14.31
2023-05-16T08:54:24.263Z,14.25
2023-05-16T08:59:35.656Z,14.22
2023-05-16T09:04:41.831Z,14.18
2023-05-16T09:09:45.957Z,14.20
2023-05-16T09:14:51.116Z,14.22
2023-05-16T09:19:58.559Z,14.46
2023-05-16T09:25:02.261Z,14.69
2023-05-16T09:30:07.646Z,14.98
2023-05-16T09:35:27.172Z,15.17
2023-05-16T09:40:45.135Z,15.60
2023-05-16T09:45:50.537Z,16.19
2023-05-16T09:50:56.407Z,16.37
2023-05-16T09:56:08.168Z,16.46
2023-05-16T10:01:12.848Z,16.28
2023-05-16T10:06:18.737Z,16.23
2023-05-16T10:11:23.304Z,16.67
2023-05-16T10:16:27.139Z,17.40
2023-05-16T10:21:33.509Z,18.20
2023-05-16T10:26:37.525Z,18.24
2023-05-16T10:31:42.947Z,17.79
2023-05-16T10:36:48.160Z,17.42
2023-05-16T10:41:52.641Z,17.21
2023-05-16T10:47:00.373Z,17.24
2023-05-16T10:52:13.641Z,17.50
2023-05-16T10:57:23.425Z,17.78
2023-05-16T11:02:42.062Z,17.56
2023-05-16T11:08:07.321Z,17.35
2023-05-16T11:13:11.061Z,17.00
2023-05-16T11:18:19.299Z,16.73
2023-05-16T11:23:24.629Z,16.65
2023-05-16T11:28:29.022Z,16.86
2023-05-16T11:33:36.030Z,17.18
2023-05-16T11:38:44.133Z,17.37
2023-05-16T11:43:48.055Z,17.54
2023-05-16T11:48:52.072Z,17.65
2023-05-16T11:53:56.204Z,17.60
2023-05-16T11:59:03.717Z,17.36
2023-05-16T12:04:13.060Z,17.09
2023-05-16T12:09:18.392Z,16.92
2023-05-16T12:14:23.705Z,16.92
2023-05-16T12:20:07.589Z,17.27
2023-05-16T12:25:42.311Z,18.31
2023-05-16T12:30:48.568Z,18.44
2023-05-16T12:36:24.759Z,18.25
2023-05-16T12:41:47.660Z,18.15
2023-05-16T12:46:55.851Z,18.27
2023-05-16T12:52:06.257Z,18.73
2023-05-16T12:57:36.370Z,19.13
2023-05-16T13:03:19.757Z,19.19
2023-05-16T13:08:23.999Z,18.89
2023-05-16T13:13:36.525Z,18.58
2023-05-16T13:19:06.248Z,18.48
2023-05-16T13:24:47.986Z,18.86
2023-05-16T13:29:54.582Z,19.21
2023-05-16T13:34:58.704Z,19.49
2023-05-16T13:40:29.693Z,19.61
2023-05-16T13:45:53.339Z,19.17
2023-05-16T13:50:59.463Z,18.61
2023-05-16T13:56:05.416Z,18.47
2023-05-16T14:01:19.885Z,18.31
2023-05-16T14:06:27.425Z,18.22
2023-05-16T14:12:00.451Z,18.05
2023-05-16T14:17:32.428Z,17.82
2023-05-16T14:23:11.128Z,17.56
2023-05-16T14:28:18.910Z,17.54
2023-05-16T14:33:34.928Z,17.59
2023-05-16T14:38:48.089Z,17.56
2023-05-16T14:43:58.299Z,17.67
2023-05-16T14:49:11.764Z,17.75
2023-05-16T14:54:37.499Z,17.88
2023-05-16T15:00:32.803Z,18.08
2023-05-16T15:06:21.107Z,18.31
2023-05-16T15:11:41.512Z,18.54
2023-05-16T15:16:53.457Z,18.62
2023-05-16T15:22:14.000Z,18.80
2023-05-16T15:27:26.696Z,19.39
2023-05-16T15:32:35.640Z,19.69
2023-05-16T15:38:12.233Z,19.92
2023-05-16T15:43:22.100Z,19.83
2023-05-16T15:48:39.907Z,20.00
2023-05-16T15:53:46.663Z,19.77
2023-05-16T15:59:00.173Z,19.62
2023-05-16T16:04:16.273Z,20.24
2023-05-16T16:09:45.165Z,20.54
2023-05-16T16:15:19.730Z,20.58
2023-05-16T16:20:50.328Z,20.41
2023-05-16T16:26:10.317Z,20.41
2023-05-16T16:31:43.373Z,20.19
2023-05-16T16:37:15.008Z,19.99
2023-05-16T16:42:28.392Z,19.80
2023-05-16T16:47:49.465Z,19.51
2023-05-16T16:58:15.442Z,18.70
2023-05-16T17:03:54.180Z,18.40
2023-05-16T17:09:07.259Z,18.19
2023-05-16T17:14:43.224Z,18.00
2023-05-16T17:27:38.247Z,17.60
2023-05-16T17:33:59.380Z,17.40
2023-05-16T17:39:08.279Z,17.17
2023-05-16T17:44:16.994Z,17.04
2023-05-16T17:50:13.880Z,16.92
2023-05-16T17:55:41.440Z,16.77
2023-05-16T18:01:40.658Z,16.58
2023-05-16T18:06:58.521Z,16.37
2023-05-16T18:12:36.657Z,16.19
2023-05-16T18:17:51.457Z,15.99
2023-05-16T18:24:37.405Z,15.90
2023-05-16T18:30:09.202Z,15.80
2023-05-16T18:35:15.647Z,15.66
2023-05-16T19:02:42.498Z,15.25
2023-05-16T19:07:46.997Z,15.08
2023-05-16T19:21:29.369Z,14.88
2023-05-16T19:27:49.596Z,14.85
2023-05-16T19:32:53.440Z,14.73
2023-05-16T19:37:57.237Z,14.65
2023-05-16T19:44:36.296Z,14.57
2023-05-16T19:49:40.045Z,14.44
2023-05-16T19:54:44.185Z,14.47
2023-05-16T19:59:47.918Z,14.46
2023-05-16T20:05:42.710Z,14.37
2023-05-16T20:11:14.602Z,14.30
2023-05-16T20:31:08.829Z,14.13
2023-05-16T20:36:19.003Z,14.06
2023-05-16T20:41:22.933Z,14.00
2023-05-16T20:46:29.694Z,14.02
2023-05-16T20:52:07.285Z,14.04
2023-05-16T20:57:32.129Z,14.00
2023-05-16T21:10:06.928Z,13.80
2023-05-16T21:15:35.491Z,13.80
2023-05-16T21:20:39.268Z,13.71
2023-05-16T21:27:05.333Z,13.60
2023-05-16T21:32:09.678Z,13.55
2023-05-16T21:48:18.581Z,13.38
2023-05-16T22:16:48.656Z,13.25
2023-05-16T22:30:33.051Z,13.12
2023-05-16T22:36:27.668Z,13.13
2023-05-16T22:42:53.307Z,13.03
2023-05-16T22:47:56.967Z,12.91
2023-05-16T23:15:54.908Z,12.50
2023-05-16T23:21:17.246Z,12.32
2023-05-16T23:30:51.822Z,12.12
2023-05-16T23:35:55.661Z,12.11
2023-05-16T23:48:27.366Z,12.02
